createdAt,value
2023-03-29T00:00:15.710Z,70.99
2023-03-29T00:01:34.906Z,71.30
2023-03-29T00:02:16.180Z,71.81
2023-03-29T00:03:16.525Z,72.13
2023-03-29T00:04:14.858Z,72.33
2023-03-29T00:05:15.930Z,72.99
2023-03-29T00:06:17.206Z,73.29
2023-03-29T00:07:16.191Z,73.50
2023-03-29T00:08:18.261Z,73.91
2023-03-29T00:09:15.443Z,74.22
2023-03-29T00:10:17.549Z,74.53
2023-03-29T00:11:15.767Z,74.84
2023-03-29T00:12:16.167Z,75.67
2023-03-29T00:13:16.362Z,76.29
2023-03-29T00:14:21.309Z,76.81
2023-03-29T00:15:16.584Z,76.64
2023-03-29T00:16:17.719Z,77.04
2023-03-29T00:17:17.601Z,77.46
2023-03-29T00:18:20.186Z,77.87
2023-03-29T00:19:17.975Z,78.70
2023-03-29T00:20:17.725Z,78.91
2023-03-29T00:21:19.787Z,79.32
2023-03-29T00:22:17.963Z,80.25
2023-03-29T00:23:18.675Z,80.46
2023-03-29T00:24:19.245Z,80.76
2023-03-29T00:25:18.403Z,81.42
2023-03-29T00:26:20.452Z,82.04
2023-03-29T00:27:20.737Z,82.35
2023-03-29T00:28:18.868Z,82.87
2023-03-29T00:30:39.068Z,83.49
2023-03-29T00:31:40.229Z,83.70
2023-03-29T00:32:40.451Z,84.05
2023-03-29T00:33:39.552Z,84.25
2023-03-29T00:34:41.235Z,84.45
2023-03-29T00:35:41.847Z,84.66
2023-03-29T00:36:44.158Z,84.45
2023-03-29T00:37:40.338Z,84.66
2023-03-29T00:38:41.560Z,85.08
2023-03-29T00:39:40.717Z,85.08
2023-03-29T00:40:41.825Z,85.49
2023-03-29T00:41:42.508Z,85.60
2023-03-29T00:42:41.148Z,85.60
2023-03-29T00:43:41.345Z,85.18
2023-03-29T00:44:42.603Z,85.18
2023-03-29T00:45:43.738Z,85.70
2023-03-29T00:46:43.885Z,85.70
2023-03-29T00:47:42.253Z,86.42
2023-03-29T00:48:45.058Z,86.11
2023-03-29T00:49:42.791Z,86.25
2023-03-29T00:50:42.975Z,86.67
2023-03-29T00:51:44.200Z,86.46
2023-03-29T00:52:43.421Z,86.05
2023-03-29T00:53:46.097Z,86.15
2023-03-29T00:54:44.566Z,86.57
2023-03-29T00:55:44.247Z,86.77
2023-03-29T00:56:47.129Z,86.88
2023-03-29T00:57:45.906Z,86.77
2023-03-29T00:58:45.159Z,86.67
2023-03-29T00:59:47.385Z,87.08
2023-03-29T01:00:45.508Z,87.39
2023-03-29T01:01:47.751Z,87.49
2023-03-29T01:02:46.068Z,87.29
2023-03-29T01:03:48.437Z,87.49
2023-03-29T01:04:48.633Z,87.70
2023-03-29T01:05:46.881Z,87.60
2023-03-29T01:06:49.889Z,87.70
2023-03-29T01:07:47.144Z,88.01
2023-03-29T01:08:48.393Z,88.43
2023-03-29T01:09:47.543Z,88.57
2023-03-29T01:10:49.690Z,88.46
2023-03-29T01:11:47.913Z,88.46
2023-03-29T01:12:49.078Z,88.16
2023-03-29T01:13:48.190Z,88.16
2023-03-29T01:14:48.368Z,88.57
2023-03-29T01:15:48.596Z,89.09
2023-03-29T01:16:48.879Z,90.02
2023-03-29T01:17:49.160Z,90.33
2023-03-29T01:18:49.407Z,91.57
2023-03-29T01:19:49.589Z,91.72
2023-03-29T01:20:49.757Z,92.03
2023-03-29T01:21:50.050Z,92.03
2023-03-29T01:22:50.658Z,93.27
2023-03-29T01:23:56.309Z,93.48
2023-03-29T01:24:50.530Z,94.10
2023-03-29T01:25:52.080Z,93.83
2023-03-29T01:27:05.396Z,93.83
2023-03-29T01:27:51.219Z,94.45
2023-03-29T01:28:51.105Z,94.35
2023-03-29T01:29:51.327Z,94.14
2023-03-29T01:30:54.779Z,94.66
2023-03-29T01:31:53.445Z,95.28
2023-03-29T01:32:55.021Z,95.28
2023-03-29T01:33:54.229Z,94.35
2023-03-29T01:34:53.941Z,94.35
2023-03-29T01:35:54.916Z,93.93
2023-03-29T01:36:55.091Z,93.83
2023-03-29T01:37:54.576Z,94.56
2023-03-29T01:38:55.238Z,94.66
2023-03-29T01:39:55.914Z,94.76
2023-03-29T01:40:55.052Z,94.66
2023-03-29T01:41:54.158Z,94.97
2023-03-29T01:42:55.217Z,95.28
2023-03-29T01:43:54.369Z,94.45
2023-03-29T01:44:55.537Z,94.14
2023-03-29T01:45:56.800Z,93.93
2023-03-29T01:46:56.124Z,94.45
2023-03-29T01:47:55.289Z,94.35
2023-03-29T01:48:55.500Z,94.04
2023-03-29T01:49:55.635Z,93.73
2023-03-29T01:50:55.840Z,93.73
2023-03-29T01:51:55.965Z,93.62
2023-03-29T01:52:56.106Z,93.37
2023-03-29T01:53:58.724Z,93.83
2023-03-29T01:54:57.139Z,93.27
2023-03-29T01:55:58.140Z,93.79
2023-03-29T01:56:57.822Z,94.10
2023-03-29T01:57:58.960Z,93.89
2023-03-29T01:58:58.037Z,94.31
2023-03-29T01:59:58.218Z,94.20
2023-03-29T02:00:57.708Z,94.20
2023-03-29T02:01:58.694Z,94.20
2023-03-29T02:02:57.527Z,93.79
2023-03-29T02:03:57.797Z,93.48
2023-03-29T02:04:57.950Z,93.31
2023-03-29T02:05:59.901Z,93.48
2023-03-29T02:06:58.188Z,93.16
2023-03-29T02:07:58.426Z,92.76
2023-03-29T02:08:58.558Z,93.06
2023-03-29T02:09:58.814Z,92.65
2023-03-29T02:10:59.083Z,92.96
2023-03-29T02:11:59.984Z,93.27
2023-03-29T02:12:59.739Z,93.16
2023-03-29T02:13:59.947Z,93.27
2023-03-29T02:15:00.185Z,93.16
2023-03-29T02:16:02.457Z,93.16
2023-03-29T02:17:00.773Z,93.06
2023-03-29T02:18:00.985Z,93.37
2023-03-29T02:19:01.173Z,93.37
2023-03-29T02:20:02.833Z,93.41
2023-03-29T02:21:01.614Z,93.41
2023-03-29T02:22:03.062Z,93.21
2023-03-29T02:23:01.755Z,93.41
2023-03-29T02:24:01.957Z,93.52
2023-03-29T02:25:04.200Z,93.62
2023-03-29T02:26:04.143Z,93.52
2023-03-29T02:27:02.376Z,93.62
2023-03-29T02:28:03.443Z,93.73
2023-03-29T02:29:03.204Z,93.52
2023-03-29T02:30:03.497Z,93.83
2023-03-29T02:31:05.084Z,94.14
2023-03-29T02:32:04.843Z,94.35
2023-03-29T02:33:06.570Z,94.56
2023-03-29T02:34:05.188Z,94.87
2023-03-29T02:35:05.328Z,94.87
2023-03-29T02:36:05.956Z,95.07
2023-03-29T02:37:05.404Z,95.18
2023-03-29T02:38:05.231Z,95.49
2023-03-29T02:39:06.353Z,95.70
2023-03-29T02:40:07.442Z,95.59
2023-03-29T02:41:07.753Z,95.59
2023-03-29T02:42:06.976Z,95.90
2023-03-29T02:43:07.389Z,96.36
2023-03-29T02:44:08.330Z,96.67
2023-03-29T02:45:07.969Z,96.57
2023-03-29T02:46:08.393Z,96.67
2023-03-29T02:47:09.167Z,96.57
2023-03-29T02:48:09.435Z,96.57
2023-03-29T02:49:09.120Z,96.67
2023-03-29T02:50:09.242Z,96.36
2023-03-29T02:51:09.932Z,96.47
2023-03-29T02:52:09.826Z,96.57
2023-03-29T02:53:10.439Z,96.57
2023-03-29T02:54:10.777Z,96.47
2023-03-29T02:55:10.977Z,96.47
2023-03-29T02:56:11.326Z,96.15
2023-03-29T02:57:10.973Z,96.15
2023-03-29T02:58:11.068Z,96.26
2023-03-29T02:59:11.659Z,96.26
2023-03-29T03:00:11.427Z,96.57
2023-03-29T03:01:11.682Z,96.62
2023-03-29T03:02:11.951Z,96.36
2023-03-29T03:03:12.231Z,96.21
2023-03-29T03:04:13.105Z,95.84
2023-03-29T03:05:13.589Z,95.74
2023-03-29T03:06:20.057Z,95.70
2023-03-29T03:07:12.606Z,95.70
2023-03-29T03:08:14.774Z,95.74
2023-03-29T03:09:12.925Z,95.70
2023-03-29T03:10:14.006Z,96.31
2023-03-29T03:11:13.165Z,96.11
2023-03-29T03:12:13.309Z,95.80
2023-03-29T03:13:14.512Z,95.80
2023-03-29T03:14:13.607Z,95.70
2023-03-29T03:15:13.778Z,95.70
2023-03-29T03:16:15.784Z,95.80
2023-03-29T03:17:13.969Z,95.90
2023-03-29T03:18:16.087Z,96.01
2023-03-29T03:19:15.234Z,95.90
2023-03-29T03:20:14.438Z,96.01
2023-03-29T03:21:15.425Z,96.01
2023-03-29T03:22:14.576Z,96.01
2023-03-29T03:23:16.693Z,96.01
2023-03-29T03:24:14.808Z,96.01
2023-03-29T03:25:15.861Z,95.90
2023-03-29T03:26:17.109Z,96.11
2023-03-29T03:27:16.255Z,96.01
2023-03-29T03:28:17.880Z,95.90
2023-03-29T03:29:16.490Z,96.01
2023-03-29T03:30:17.600Z,96.11
2023-03-29T03:31:15.814Z,96.42
2023-03-29T03:32:16.122Z,96.62
2023-03-29T03:33:18.300Z,96.52
2023-03-29T03:34:18.463Z,96.21
2023-03-29T03:35:18.649Z,96.01
2023-03-29T03:36:21.168Z,96.01
2023-03-29T03:37:17.484Z,96.11
2023-03-29T03:38:20.259Z,96.11
2023-03-29T03:39:17.600Z,96.11
2023-03-29T03:40:18.734Z,96.21
2023-03-29T03:41:18.803Z,96.62
2023-03-29T03:42:19.270Z,96.52
2023-03-29T03:43:19.376Z,96.31
2023-03-29T03:44:22.390Z,96.11
2023-03-29T03:45:19.628Z,96.11
2023-03-29T03:46:20.854Z,96.31
2023-03-29T03:47:19.097Z,96.52
2023-03-29T03:48:19.479Z,96.52
2023-03-29T03:49:19.618Z,96.42
2023-03-29T03:50:21.911Z,96.52
2023-03-29T03:51:20.032Z,96.42
2023-03-29T03:52:20.162Z,96.57
2023-03-29T03:53:22.304Z,96.57
2023-03-29T03:54:21.435Z,96.57
2023-03-29T03:55:22.635Z,96.52
2023-03-29T03:56:25.364Z,96.52
2023-03-29T03:57:21.043Z,96.62
2023-03-29T03:58:21.267Z,96.73
2023-03-29T03:59:22.344Z,96.73
2023-03-29T04:00:21.581Z,96.62
2023-03-29T04:01:22.757Z,96.62
2023-03-29T04:02:21.928Z,96.62
2023-03-29T04:03:23.197Z,96.62
2023-03-29T04:04:22.424Z,96.94
2023-03-29T04:05:23.624Z,96.83
2023-03-29T04:06:25.872Z,96.73
2023-03-29T04:07:23.023Z,96.83
2023-03-29T04:08:23.127Z,97.04
2023-03-29T04:09:24.789Z,96.94
2023-03-29T04:10:23.480Z,96.94
2023-03-29T04:11:23.646Z,96.94
2023-03-29T04:12:24.795Z,96.83
2023-03-29T04:13:23.946Z,97.04
2023-03-29T04:14:24.082Z,97.04
2023-03-29T04:15:24.271Z,96.94
2023-03-29T04:16:26.593Z,96.73
2023-03-29T04:17:24.814Z,96.62
2023-03-29T04:18:25.106Z,96.62
2023-03-29T04:19:25.347Z,96.52
2023-03-29T04:20:26.535Z,96.52
2023-03-29T04:21:25.699Z,96.52
2023-03-29T04:22:25.897Z,96.73
2023-03-29T04:23:28.777Z,96.73
2023-03-29T04:24:27.488Z,96.73
2023-03-29T04:25:28.251Z,96.52
2023-03-29T04:26:28.443Z,96.62
2023-03-29T04:27:28.195Z,96.73
2023-03-29T04:28:29.333Z,96.62
2023-03-29T04:29:28.567Z,96.52
2023-03-29T04:30:29.783Z,96.62
2023-03-29T04:31:29.889Z,96.52
2023-03-29T04:32:29.189Z,96.52
2023-03-29T04:33:28.456Z,96.62
2023-03-29T04:34:28.601Z,96.52
2023-03-29T04:35:29.684Z,96.52
2023-03-29T04:36:30.810Z,96.42
2023-03-29T04:37:28.993Z,96.42
2023-03-29T04:38:30.117Z,96.73
2023-03-29T04:39:29.261Z,96.62
2023-03-29T04:40:30.377Z,96.52
2023-03-29T04:41:30.482Z,96.21
2023-03-29T04:42:30.555Z,96.21
2023-03-29T04:43:29.670Z,96.11
2023-03-29T04:44:31.329Z,96.01
2023-03-29T04:45:30.042Z,95.90
2023-03-29T04:46:32.426Z,95.90
2023-03-29T04:47:31.245Z,95.80
2023-03-29T04:48:32.398Z,96.01
2023-03-29T04:49:30.570Z,95.90
2023-03-29T04:50:32.798Z,96.01
2023-03-29T04:51:31.917Z,95.90
2023-03-29T04:52:31.988Z,95.90
2023-03-29T04:53:31.113Z,96.01
2023-03-29T04:54:31.520Z,96.11
2023-03-29T04:55:33.589Z,96.11
2023-03-29T04:56:33.756Z,96.11
2023-03-29T04:57:33.747Z,96.11
2023-03-29T04:58:32.803Z,96.11
2023-03-29T04:59:34.574Z,96.21
2023-03-29T05:00:33.745Z,96.31
2023-03-29T05:01:34.913Z,96.62
2023-03-29T05:02:35.267Z,96.73
2023-03-29T05:03:35.404Z,96.62
2023-03-29T05:04:36.612Z,96.31
2023-03-29T05:05:34.786Z,96.21
2023-03-29T05:06:39.149Z,96.31
2023-03-29T05:07:34.427Z,96.31
2023-03-29T05:08:34.642Z,96.11
2023-03-29T05:09:35.572Z,96.11
2023-03-29T05:10:34.880Z,96.01
2023-03-29T05:11:35.058Z,95.96
2023-03-29T05:12:35.332Z,95.75
2023-03-29T05:13:36.480Z,95.54
2023-03-29T05:14:36.278Z,95.54
2023-03-29T05:15:40.195Z,95.34
2023-03-29T05:16:37.347Z,95.34
2023-03-29T05:17:37.497Z,95.44
2023-03-29T05:18:37.530Z,95.34
2023-03-29T05:19:38.220Z,95.34
2023-03-29T05:20:38.517Z,95.65
2023-03-29T05:21:38.570Z,95.54
2023-03-29T05:22:38.636Z,95.44
2023-03-29T05:23:38.133Z,95.34
2023-03-29T05:24:38.613Z,95.44
2023-03-29T05:25:40.593Z,95.65
2023-03-29T05:26:39.596Z,95.24
2023-03-29T05:27:38.735Z,95.14
2023-03-29T05:28:38.630Z,95.34
2023-03-29T05:29:38.395Z,95.44
2023-03-29T05:30:39.479Z,95.03
2023-03-29T05:31:38.809Z,94.72
2023-03-29T05:32:41.014Z,94.47
2023-03-29T05:33:40.074Z,94.57
2023-03-29T05:34:39.472Z,95.19
2023-03-29T05:35:42.896Z,94.57
2023-03-29T05:36:42.461Z,94.16
2023-03-29T05:37:43.047Z,94.16
2023-03-29T05:38:40.560Z,94.06
2023-03-29T05:39:44.207Z,94.37
2023-03-29T05:40:41.516Z,94.47
2023-03-29T05:41:41.723Z,94.26
2023-03-29T05:42:41.914Z,93.95
2023-03-29T05:43:42.137Z,94.06
2023-03-29T05:44:43.916Z,94.06
2023-03-29T05:45:42.578Z,94.47
2023-03-29T05:46:42.837Z,94.26
2023-03-29T05:47:43.045Z,94.06
2023-03-29T05:48:43.171Z,94.06
2023-03-29T05:49:42.506Z,94.37
2023-03-29T05:50:45.070Z,93.85
2023-03-29T05:51:43.254Z,94.06
2023-03-29T05:52:43.208Z,94.16
2023-03-29T05:53:44.567Z,94.16
2023-03-29T05:54:44.088Z,94.26
2023-03-29T05:55:44.840Z,94.16
2023-03-29T05:56:45.951Z,94.01
2023-03-29T05:57:44.551Z,93.39
2023-03-29T05:58:44.441Z,93.49
2023-03-29T05:59:46.547Z,93.70
2023-03-29T06:00:45.152Z,93.49
2023-03-29T06:01:57.849Z,93.29
2023-03-29T06:02:46.628Z,93.80
2023-03-29T06:03:46.724Z,93.70
2023-03-29T06:04:47.568Z,93.49
2023-03-29T06:05:49.086Z,93.39
2023-03-29T06:06:49.435Z,93.39
2023-03-29T06:07:47.977Z,93.60
2023-03-29T06:08:47.864Z,93.39
2023-03-29T06:09:49.506Z,93.49
2023-03-29T06:10:49.329Z,93.08
2023-03-29T06:11:51.981Z,93.14
2023-03-29T06:12:50.286Z,93.04
2023-03-29T06:13:48.217Z,93.14
2023-03-29T06:14:48.504Z,93.14
2023-03-29T06:15:50.153Z,93.14
2023-03-29T06:16:50.291Z,92.83
2023-03-29T06:17:51.665Z,92.93
2023-03-29T06:18:50.724Z,92.89
2023-03-29T06:19:50.359Z,92.38
2023-03-29T06:20:52.052Z,92.17
2023-03-29T06:21:50.305Z,92.17
2023-03-29T06:22:50.669Z,91.96
2023-03-29T06:23:51.934Z,91.96
2023-03-29T06:24:51.861Z,91.86
2023-03-29T06:25:52.140Z,92.07
2023-03-29T06:26:54.170Z,92.07
2023-03-29T06:27:55.853Z,92.07
2023-03-29T06:28:52.858Z,91.96
2023-03-29T06:29:53.745Z,92.17
2023-03-29T06:30:55.008Z,92.07
2023-03-29T06:31:56.091Z,92.27
2023-03-29T06:32:53.518Z,92.32
2023-03-29T06:33:55.449Z,92.42
2023-03-29T06:34:57.151Z,92.11
2023-03-29T06:36:09.419Z,92.42
2023-03-29T06:36:56.454Z,92.00
2023-03-29T06:37:54.867Z,92.11
2023-03-29T06:39:22.119Z,92.00
2023-03-29T06:39:55.691Z,92.27
2023-03-29T06:40:54.940Z,92.27
2023-03-29T06:41:56.220Z,92.07
2023-03-29T06:42:56.784Z,91.96
2023-03-29T06:43:58.981Z,92.27
2023-03-29T06:44:56.484Z,92.07
2023-03-29T06:45:57.399Z,91.55
2023-03-29T06:46:56.014Z,91.75
2023-03-29T06:48:00.178Z,91.75
2023-03-29T06:48:58.215Z,91.34
2023-03-29T06:49:56.536Z,91.44
2023-03-29T06:50:57.049Z,91.13
2023-03-29T06:51:57.102Z,91.24
2023-03-29T06:52:59.267Z,91.65
2023-03-29T06:53:57.614Z,91.65
2023-03-29T06:54:57.948Z,91.24
2023-03-29T06:56:03.204Z,91.09
2023-03-29T06:56:58.030Z,91.20
2023-03-29T06:58:02.448Z,90.68
2023-03-29T06:59:00.778Z,90.78
2023-03-29T07:00:00.256Z,90.68
2023-03-29T07:00:58.730Z,90.58
2023-03-29T07:02:08.933Z,90.99
2023-03-29T07:02:59.576Z,90.78
2023-03-29T07:03:58.954Z,90.22
2023-03-29T07:04:59.656Z,90.12
2023-03-29T07:06:02.591Z,89.50
2023-03-29T07:07:05.195Z,89.50
2023-03-29T07:08:07.679Z,89.71
2023-03-29T07:09:01.796Z,89.71
2023-03-29T07:10:03.242Z,89.81
2023-03-29T07:11:02.170Z,89.46
2023-03-29T07:12:01.666Z,89.36
2023-03-29T07:13:01.723Z,89.56
2023-03-29T07:14:02.836Z,88.64
2023-03-29T07:15:02.267Z,88.43
2023-03-29T07:16:04.078Z,88.43
2023-03-29T07:17:03.791Z,88.84
2023-03-29T07:18:05.021Z,89.15
2023-03-29T07:19:03.924Z,88.64
2023-03-29T07:20:03.112Z,88.32
2023-03-29T07:21:04.373Z,88.53
2023-03-29T07:22:04.335Z,88.90
2023-03-29T07:23:04.905Z,88.29
2023-03-29T07:24:04.594Z,88.49
2023-03-29T07:25:06.686Z,88.29
2023-03-29T07:26:05.230Z,88.18
2023-03-29T07:27:09.203Z,88.49
2023-03-29T07:28:05.751Z,88.35
2023-03-29T07:29:06.042Z,87.32
2023-03-29T07:30:07.921Z,87.42
2023-03-29T07:31:08.640Z,87.42
2023-03-29T07:32:07.296Z,86.80
2023-03-29T07:33:14.338Z,86.29
2023-03-29T07:34:07.211Z,85.97
2023-03-29T07:35:08.339Z,86.29
2023-03-29T07:36:10.216Z,86.70
2023-03-29T07:37:07.640Z,86.49
2023-03-29T07:38:09.173Z,86.29
2023-03-29T07:39:09.715Z,86.90
2023-03-29T07:40:09.367Z,86.80
2023-03-29T07:41:10.011Z,86.70
2023-03-29T07:42:10.397Z,86.66
2023-03-29T07:43:09.199Z,86.35
2023-03-29T07:44:09.698Z,85.94
2023-03-29T07:45:09.663Z,86.04
2023-03-29T07:46:10.452Z,86.04
2023-03-29T07:47:12.355Z,85.83
2023-03-29T07:48:11.410Z,86.35
2023-03-29T07:49:10.657Z,85.69
2023-03-29T07:50:10.524Z,84.97
2023-03-29T07:51:12.459Z,84.87
2023-03-29T07:52:11.405Z,84.87
2023-03-29T07:53:18.629Z,85.17
2023-03-29T07:54:12.391Z,86.00
2023-03-29T07:55:12.819Z,85.34
2023-03-29T07:56:23.519Z,84.72
2023-03-29T07:57:15.466Z,84.42
2023-03-29T07:58:13.942Z,84.62
2023-03-29T07:59:13.428Z,84.00
2023-03-29T08:00:14.795Z,84.31
2023-03-29T08:01:16.409Z,83.70
2023-03-29T08:02:28.480Z,83.39
2023-03-29T08:03:15.827Z,83.53
2023-03-29T08:04:14.814Z,84.14
2023-03-29T08:05:19.006Z,84.42
2023-03-29T08:06:15.159Z,83.70
2023-03-29T08:07:28.239Z,83.70
2023-03-29T08:08:15.675Z,83.49
2023-03-29T08:09:15.814Z,83.59
2023-03-29T08:10:15.681Z,83.70
2023-03-29T08:11:15.686Z,83.90
2023-03-29T08:12:16.385Z,83.18
2023-03-29T08:13:16.253Z,83.59
2023-03-29T08:14:18.244Z,83.39
2023-03-29T08:15:39.792Z,84.11
2023-03-29T08:16:20.547Z,84.21
2023-03-29T08:17:17.140Z,84.72
2023-03-29T08:18:18.988Z,84.69
2023-03-29T08:19:20.306Z,84.38
2023-03-29T08:20:18.248Z,84.79
2023-03-29T08:21:34.212Z,85.41
2023-03-29T08:22:18.925Z,83.55
2023-03-29T08:23:21.866Z,83.80
2023-03-29T08:24:52.243Z,82.87
2023-03-29T08:25:24.219Z,83.04
2023-03-29T08:26:22.360Z,83.25
2023-03-29T08:27:21.329Z,83.04
2023-03-29T08:28:21.900Z,82.93
2023-03-29T08:29:26.973Z,82.73
2023-03-29T08:30:20.006Z,83.04
2023-03-29T08:31:35.859Z,83.00
2023-03-29T08:32:21.179Z,83.00
2023-03-29T08:33:21.242Z,82.48
2023-03-29T08:34:21.261Z,81.97
2023-03-29T08:35:20.757Z,82.18
2023-03-29T08:36:22.214Z,82.59
2023-03-29T08:37:29.634Z,82.90
2023-03-29T08:38:22.771Z,83.31
2023-03-29T08:39:23.357Z,83.00
2023-03-29T08:40:21.785Z,82.59
2023-03-29T08:41:24.461Z,82.73
2023-03-29T08:42:27.364Z,83.31
2023-03-29T08:43:24.793Z,83.41
2023-03-29T08:44:23.804Z,83.31
2023-03-29T08:45:24.200Z,83.51
2023-03-29T08:46:26.305Z,83.62
2023-03-29T08:47:27.723Z,83.62
2023-03-29T08:48:26.871Z,84.13
2023-03-29T08:49:25.732Z,84.34
2023-03-29T08:50:26.975Z,83.72
2023-03-29T08:51:25.348Z,83.83
2023-03-29T08:52:28.791Z,84.03
2023-03-29T08:53:37.484Z,83.83
2023-03-29T08:54:27.806Z,84.64
2023-03-29T08:55:26.968Z,84.54
2023-03-29T08:56:37.698Z,84.03
2023-03-29T08:57:43.369Z,84.23
2023-03-29T08:58:27.181Z,84.54
2023-03-29T08:59:38.992Z,85.26
2023-03-29T09:00:35.364Z,85.68
2023-03-29T09:01:31.652Z,85.33
2023-03-29T09:02:30.505Z,84.50
2023-03-29T09:03:30.115Z,83.78
2023-03-29T09:04:36.603Z,84.20
2023-03-29T09:05:34.593Z,84.09
2023-03-29T09:07:23.436Z,84.20
2023-03-29T09:08:46.075Z,84.54
2023-03-29T09:09:44.627Z,84.23
2023-03-29T09:10:45.109Z,84.13
2023-03-29T09:11:45.479Z,83.99
2023-03-29T09:12:45.486Z,84.20
2023-03-29T09:13:45.336Z,83.58
2023-03-29T09:14:45.854Z,83.58
2023-03-29T09:15:45.577Z,83.37
2023-03-29T09:16:48.839Z,83.64
2023-03-29T09:17:49.618Z,83.33
2023-03-29T09:18:46.190Z,83.13
2023-03-29T09:19:45.583Z,83.29
2023-03-29T09:20:46.685Z,82.89
2023-03-29T09:21:47.458Z,82.27
2023-03-29T09:22:50.912Z,82.17
2023-03-29T09:23:48.891Z,82.17
2023-03-29T09:24:49.584Z,82.23
2023-03-29T09:27:31.179Z,81.71
2023-03-29T09:28:28.225Z,82.13
2023-03-29T09:29:28.792Z,82.29
2023-03-29T09:30:29.299Z,81.68
2023-03-29T09:31:29.046Z,81.06
2023-03-29T09:32:29.109Z,80.76
2023-03-29T09:38:29.714Z,79.45
2023-03-29T09:39:30.415Z,79.66
2023-03-29T09:40:29.753Z,79.80
2023-03-29T09:41:30.104Z,80.31
2023-03-29T09:42:31.275Z,80.92
2023-03-29T09:43:30.643Z,80.27
2023-03-29T09:44:34.905Z,80.31
2023-03-29T09:45:31.439Z,80.27
2023-03-29T09:46:31.434Z,80.27
2023-03-29T09:47:31.388Z,80.17
2023-03-29T09:48:31.273Z,80.17
2023-03-29T09:49:33.292Z,81.20
2023-03-29T09:50:32.691Z,80.37
2023-03-29T09:51:32.248Z,80.37
2023-03-29T09:52:32.619Z,80.47
2023-03-29T09:53:34.197Z,79.96
2023-03-29T09:54:32.734Z,80.47
2023-03-29T09:55:38.773Z,80.88
2023-03-29T09:56:35.193Z,80.47
2023-03-29T09:57:34.109Z,80.58
2023-03-29T09:58:33.018Z,80.72
2023-03-29T09:59:35.525Z,81.23
2023-03-29T10:00:33.419Z,81.54
2023-03-29T10:01:33.969Z,81.54
2023-03-29T10:02:33.220Z,81.95
2023-03-29T10:03:34.082Z,81.74
2023-03-29T10:04:37.223Z,81.85
2023-03-29T10:05:42.436Z,82.26
2023-03-29T10:06:41.917Z,82.01
2023-03-29T10:07:38.431Z,81.50
2023-03-29T10:08:39.204Z,81.40
2023-03-29T10:09:36.921Z,81.64
2023-03-29T10:10:36.387Z,81.91
2023-03-29T10:11:37.495Z,81.71
2023-03-29T10:12:36.535Z,81.09
2023-03-29T10:13:38.368Z,81.29
2023-03-29T10:14:39.030Z,81.20
2023-03-29T10:15:37.771Z,81.40
2023-03-29T10:16:37.331Z,81.50
2023-03-29T10:17:37.732Z,81.81
2023-03-29T10:18:38.175Z,82.12
2023-03-29T10:19:37.809Z,81.81
2023-03-29T10:20:40.444Z,81.91
2023-03-29T10:21:37.677Z,81.91
2023-03-29T10:22:40.217Z,81.91
2023-03-29T10:23:38.925Z,81.77
2023-03-29T10:24:41.137Z,81.77
2023-03-29T10:25:43.031Z,81.01
2023-03-29T10:26:39.348Z,80.60
2023-03-29T10:27:41.856Z,80.51
2023-03-29T10:28:40.626Z,80.36
2023-03-29T10:29:39.673Z,80.43
2023-03-29T10:30:39.524Z,79.00
2023-03-29T10:31:41.801Z,79.00
2023-03-29T10:32:40.791Z,78.79
2023-03-29T10:33:39.834Z,78.38
2023-03-29T10:34:40.641Z,78.49
2023-03-29T10:35:41.732Z,78.45
2023-03-29T10:36:40.852Z,77.83
2023-03-29T10:37:42.135Z,78.24
2023-03-29T10:38:41.734Z,78.14
2023-03-29T10:39:43.011Z,78.04
2023-03-29T10:40:41.953Z,78.34
2023-03-29T10:41:42.050Z,78.31
2023-03-29T10:42:44.911Z,78.27
2023-03-29T10:43:42.855Z,77.65
2023-03-29T10:44:42.460Z,74.42
2023-03-29T10:45:43.281Z,73.57
2023-03-29T10:46:43.529Z,72.72
2023-03-29T10:47:45.246Z,72.04
2023-03-29T10:48:43.068Z,72.48
2023-03-29T10:49:43.535Z,72.86
2023-03-29T10:50:45.984Z,74.05
2023-03-29T10:51:45.069Z,76.37
2023-03-29T10:52:45.997Z,77.63
2023-03-29T10:53:43.973Z,78.55
2023-03-29T10:54:55.136Z,78.65
2023-03-29T10:55:51.964Z,78.96
2023-03-29T10:56:44.738Z,78.96
2023-03-29T10:57:45.194Z,78.45
2023-03-29T10:58:52.827Z,78.96
2023-03-29T10:59:46.101Z,79.61
2023-03-29T11:00:46.191Z,80.22
2023-03-29T11:01:46.391Z,80.90
2023-03-29T11:02:50.612Z,81.62
2023-03-29T11:03:47.349Z,81.17
2023-03-29T11:04:46.318Z,81.38
2023-03-29T11:05:47.683Z,81.99
2023-03-29T11:06:47.082Z,80.93
2023-03-29T11:07:47.540Z,80.76
2023-03-29T11:08:47.344Z,81.07
2023-03-29T11:09:47.521Z,81.58
2023-03-29T11:10:47.634Z,80.93
2023-03-29T11:11:47.787Z,80.93
2023-03-29T11:12:47.886Z,79.50
2023-03-29T11:13:48.067Z,79.19
2023-03-29T11:14:48.396Z,79.46
2023-03-29T11:15:48.529Z,79.66
2023-03-29T11:16:49.161Z,80.55
2023-03-29T11:17:48.910Z,79.63
2023-03-29T11:18:49.011Z,79.32
2023-03-29T11:19:49.118Z,77.52
2023-03-29T11:20:49.501Z,78.38
2023-03-29T11:21:49.612Z,79.13
2023-03-29T11:22:49.710Z,79.74
2023-03-29T11:23:49.846Z,80.05
2023-03-29T11:24:50.025Z,80.15
2023-03-29T11:25:50.201Z,80.15
2023-03-29T11:26:50.309Z,79.94
2023-03-29T11:27:51.425Z,79.84
2023-03-29T11:28:50.422Z,80.08
2023-03-29T11:29:50.301Z,80.60
2023-03-29T11:30:50.068Z,81.27
2023-03-29T11:31:50.780Z,81.17
2023-03-29T11:32:50.791Z,80.25
2023-03-29T11:33:51.197Z,79.94
2023-03-29T11:34:51.654Z,80.05
2023-03-29T11:35:52.067Z,80.25
2023-03-29T11:36:52.531Z,80.35
2023-03-29T11:37:52.954Z,80.56
2023-03-29T11:38:52.223Z,80.15
2023-03-29T11:39:52.600Z,80.46
2023-03-29T11:40:53.609Z,80.35
2023-03-29T11:41:52.917Z,80.87
2023-03-29T11:42:53.213Z,81.07
2023-03-29T11:43:55.328Z,80.05
2023-03-29T11:44:55.256Z,80.15
2023-03-29T11:45:54.999Z,80.05
2023-03-29T11:46:56.268Z,80.66
2023-03-29T11:47:56.417Z,80.25
2023-03-29T11:48:54.841Z,80.56
2023-03-29T11:49:55.090Z,80.76
2023-03-29T11:50:55.520Z,80.76
2023-03-29T11:51:55.924Z,80.87
2023-03-29T11:52:56.413Z,80.66
2023-03-29T11:53:56.723Z,80.93
2023-03-29T11:54:58.802Z,80.83
2023-03-29T11:55:58.456Z,80.62
2023-03-29T11:56:58.166Z,80.42
2023-03-29T11:57:57.560Z,79.97
2023-03-29T11:58:59.742Z,79.97
2023-03-29T11:59:58.880Z,79.91
2023-03-29T12:01:00.222Z,80.01
2023-03-29T12:01:58.017Z,80.42
2023-03-29T12:03:01.421Z,80.97
2023-03-29T12:04:00.807Z,81.58
2023-03-29T12:05:00.621Z,81.48
2023-03-29T12:06:01.396Z,82.09
2023-03-29T12:07:01.574Z,82.20
2023-03-29T12:08:01.078Z,81.99
2023-03-29T12:09:00.157Z,82.29
2023-03-29T12:09:59.969Z,82.40
2023-03-29T12:11:00.512Z,82.91
2023-03-29T12:12:02.543Z,83.52
2023-03-29T12:13:02.192Z,84.30
2023-03-29T12:14:03.039Z,83.52
2023-03-29T12:15:02.855Z,83.83
2023-03-29T12:16:04.019Z,84.14
2023-03-29T12:17:01.777Z,84.61
2023-03-29T12:18:01.907Z,84.61
2023-03-29T12:19:12.093Z,84.41
2023-03-29T12:20:03.254Z,84.85
2023-03-29T12:21:04.699Z,84.24
2023-03-29T12:22:02.487Z,83.83
2023-03-29T12:23:04.333Z,84.38
2023-03-29T12:24:05.249Z,84.34
2023-03-29T12:25:05.144Z,84.24
2023-03-29T12:26:05.364Z,84.24
2023-03-29T12:27:06.816Z,84.34
2023-03-29T12:28:04.371Z,84.34
2023-03-29T12:29:06.671Z,84.03
2023-03-29T12:30:05.831Z,83.93
2023-03-29T12:31:06.225Z,84.14
2023-03-29T12:32:05.389Z,83.89
2023-03-29T12:33:07.724Z,83.38
2023-03-29T12:34:06.472Z,83.34
2023-03-29T12:35:06.757Z,82.73
2023-03-29T12:36:07.986Z,82.49
2023-03-29T12:37:06.223Z,82.39
2023-03-29T12:38:08.426Z,82.24
2023-03-29T12:39:08.090Z,82.31
2023-03-29T12:40:06.753Z,81.04
2023-03-29T12:41:07.946Z,79.58
2023-03-29T12:42:07.990Z,79.58
2023-03-29T12:43:07.227Z,79.00
2023-03-29T12:44:09.585Z,79.82
2023-03-29T12:45:07.496Z,79.86
2023-03-29T12:46:08.530Z,80.07
2023-03-29T12:47:07.826Z,80.10
2023-03-29T12:48:08.744Z,80.20
2023-03-29T12:49:21.098Z,80.71
2023-03-29T12:50:07.960Z,80.61
2023-03-29T12:51:10.381Z,80.75
2023-03-29T12:52:08.566Z,81.26
2023-03-29T12:53:10.615Z,81.67
2023-03-29T12:54:08.816Z,81.67
2023-03-29T12:55:09.838Z,81.16
2023-03-29T12:56:08.984Z,81.46
2023-03-29T12:57:11.068Z,81.16
2023-03-29T12:58:10.633Z,81.26
2023-03-29T12:59:10.293Z,81.16
2023-03-29T13:00:10.944Z,81.02
2023-03-29T13:01:11.676Z,80.88
2023-03-29T13:02:12.199Z,80.57
2023-03-29T13:03:11.449Z,79.86
2023-03-29T13:04:11.157Z,79.66